sensor_id;sensor_type;location;lat;lon;timestamp;pressure;altitude;pressure_sealevel;temperature;humidity
12594;BME280;6362;50.208;9.182;2022-07-23T00:02:05;99778.38;;;21.29;95.49
12594;BME280;6362;50.208;9.182;2022-07-23T00:04:32;99770.88;;;21.21;95.45
12594;BME280;6362;50.208;9.182;2022-07-23T00:06:57;99762.97;;;21.25;98.74
12594;BME280;6362;50.208;9.182;2022-07-23T00:09:23;99741.38;;;21.24;98.74
12594;BME280;6362;50.208;9.182;2022-07-23T00:11:48;99724.06;;;21.25;98.71
12594;BME280;6362;50.208;9.182;2022-07-23T00:14:13;99720.00;;;21.17;97.52
12594;BME280;6362;50.208;9.182;2022-07-23T00:16:39;99717.63;;;21.11;96.83
12594;BME280;6362;50.208;9.182;2022-07-23T00:19:04;99719.25;;;21.14;97.08
12594;BME280;6362;50.208;9.182;2022-07-23T00:21:29;99719.88;;;21.20;97.02
12594;BME280;6362;50.208;9.182;2022-07-23T00:23:55;99716.03;;;21.32;93.83
12594;BME280;6362;50.208;9.182;2022-07-23T00:26:21;99715.41;;;21.26;94.49
12594;BME280;6362;50.208;9.182;2022-07-23T00:28:46;99714.13;;;21.12;95.01
12594;BME280;6362;50.208;9.182;2022-07-23T00:31:11;99715.94;;;21.10;95.30
12594;BME280;6362;50.208;9.182;2022-07-23T00:33:37;99714.13;;;21.12;95.19
12594;BME280;6362;50.208;9.182;2022-07-23T00:36:02;99715.19;;;21.07;96.23
12594;BME280;6362;50.208;9.182;2022-07-23T00:38:28;99721.75;;;21.17;95.21
12594;BME280;6362;50.208;9.182;2022-07-23T00:40:53;99717.41;;;21.17;94.40
12594;BME280;6362;50.208;9.182;2022-07-23T00:43:23;99740.78;;;21.16;94.72
12594;BME280;6362;50.208;9.182;2022-07-23T00:45:49;99741.88;;;21.10;95.10
12594;BME280;6362;50.208;9.182;2022-07-23T00:48:14;99748.84;;;21.08;96.01
12594;BME280;6362;50.208;9.182;2022-07-23T00:50:40;99745.66;;;21.00;96.44
12594;BME280;6362;50.208;9.182;2022-07-23T00:53:05;99748.56;;;20.91;99.21
12594;BME280;6362;50.208;9.182;2022-07-23T00:55:31;99753.09;;;20.86;98.35
12594;BME280;6362;50.208;9.182;2022-07-23T00:57:58;99754.03;;;20.83;99.96
12594;BME280;6362;50.208;9.182;2022-07-23T01:00:23;99739.56;;;20.76;100.00
12594;BME280;6362;50.208;9.182;2022-07-23T01:02:49;99733.44;;;20.78;100.00
12594;BME280;6362;50.208;9.182;2022-07-23T01:05:15;99733.44;;;20.78;100.00
12594;BME280;6362;50.208;9.182;2022-07-23T01:07:42;99730.16;;;20.73;100.00
12594;BME280;6362;50.208;9.182;2022-07-23T01:10:08;99732.69;;;20.75;100.00
12594;BME280;6362;50.208;9.182;2022-07-23T01:12:53;99726.75;;;20.71;100.00
12594;BME280;6362;50.208;9.182;2022-07-23T01:15:19;99727.72;;;20.69;100.00
12594;BME280;6362;50.208;9.182;2022-07-23T01:17:44;99727.81;;;20.66;100.00
12594;BME280;6362;50.208;9.182;2022-07-23T01:20:10;99728.19;;;20.80;100.00
12594;BME280;6362;50.208;9.182;2022-07-23T01:22:35;99739.22;;;20.87;100.00
12594;BME280;6362;50.208;9.182;2022-07-23T01:25:01;99733.66;;;20.72;100.00
12594;BME280;6362;50.208;9.182;2022-07-23T01:27:26;99720.34;;;20.56;100.00
12594;BME280;6362;50.208;9.182;2022-07-23T01:29:54;99721.47;;;20.48;100.00
12594;BME280;6362;50.208;9.182;2022-07-23T01:32:20;99751.28;;;20.33;100.00
12594;BME280;6362;50.208;9.182;2022-07-23T01:34:45;99752.72;;;20.15;100.00
12594;BME280;6362;50.208;9.182;2022-07-23T01:37:11;99755.31;;;19.87;100.00
12594;BME280;6362;50.208;9.182;2022-07-23T01:39:36;99753.13;;;19.73;100.00
12594;BME280;6362;50.208;9.182;2022-07-23T01:42:01;99749.88;;;19.65;100.00
12594;BME280;6362;50.208;9.182;2022-07-23T01:44:27;99751.16;;;19.50;100.00
12594;BME280;6362;50.208;9.182;2022-07-23T01:46:52;99744.63;;;19.37;100.00
12594;BME280;6362;50.208;9.182;2022-07-23T01:49:18;99753.28;;;19.35;100.00
12594;BME280;6362;50.208;9.182;2022-07-23T01:51:43;99760.41;;;19.27;100.00
12594;BME280;6362;50.208;9.182;2022-07-23T01:54:32;99775.25;;;19.19;100.00
12594;BME280;6362;50.208;9.182;2022-07-23T01:56:58;99778.81;;;19.15;100.00
12594;BME280;6362;50.208;9.182;2022-07-23T01:59:24;99770.16;;;19.16;100.00
12594;BME280;6362;50.208;9.182;2022-07-23T02:01:50;99763.19;;;19.20;100.00
12594;BME280;6362;50.208;9.182;2022-07-23T02:04:17;99758.94;;;19.17;100.00
12594;BME280;6362;50.208;9.182;2022-07-23T02:06:43;99762.63;;;19.08;100.00
12594;BME280;6362;50.208;9.182;2022-07-23T02:09:08;99763.28;;;19.17;100.00
12594;BME280;6362;50.208;9.182;2022-07-23T02:11:33;99764.53;;;19.00;100.00
12594;BME280;6362;50.208;9.182;2022-07-23T02:13:59;99769.78;;;18.97;100.00
12594;BME280;6362;50.208;9.182;2022-07-23T02:16:24;99772.53;;;18.91;100.00
12594;BME280;6362;50.208;9.182;2022-07-23T02:18:50;99749.38;;;18.88;100.00
12594;BME280;6362;50.208;9.182;2022-07-23T02:21:15;99734.94;;;18.79;100.00
12594;BME280;6362;50.208;9.182;2022-07-23T02:23:41;99738.41;;;18.77;100.00
12594;BME280;6362;50.208;9.182;2022-07-23T02:26:06;99723.16;;;18.67;100.00
12594;BME280;6362;50.208;9.182;2022-07-23T02:28:32;99715.75;;;18.54;100.00
12594;BME280;6362;50.208;9.182;2022-07-23T02:30:57;99721.97;;;18.45;100.00
12594;BME280;6362;50.208;9.182;2022-07-23T02:33:23;99718.22;;;18.58;100.00
12594;BME280;6362;50.208;9.182;2022-07-23T02:35:48;99717.31;;;18.59;100.00
12594;BME280;6362;50.208;9.182;2022-07-23T02:38:14;99726.09;;;18.52;100.00
12594;BME280;6362;50.208;9.182;2022-07-23T02:40:39;99729.41;;;18.57;100.00
12594;BME280;6362;50.208;9.182;2022-07-23T02:43:05;99737.13;;;18.59;100.00
12594;BME280;6362;50.208;9.182;2022-07-23T02:45:30;99766.34;;;18.62;100.00
12594;BME280;6362;50.208;9.182;2022-07-23T02:47:55;99787.06;;;18.59;100.00
12594;BME280;6362;50.208;9.182;2022-07-23T02:50:21;99798.41;;;18.54;100.00
12594;BME280;6362;50.208;9.182;2022-07-23T02:52:46;99801.75;;;18.57;100.00
12594;BME280;6362;50.208;9.182;2022-07-23T02:55:12;99794.97;;;18.53;100.00
12594;BME280;6362;50.208;9.182;2022-07-23T02:57:37;99786.41;;;18.51;100.00
12594;BME280;6362;50.208;9.182;2022-07-23T03:00:05;99784.03;;;18.42;100.00
12594;BME280;6362;50.208;9.182;2022-07-23T03:02:31;99785.94;;;18.34;100.00
12594;BME280;6362;50.208;9.182;2022-07-23T03:04:56;99788.66;;;18.27;100.00
12594;BME280;6362;50.208;9.182;2022-07-23T03:07:22;99797.22;;;18.29;100.00
12594;BME280;6362;50.208;9.182;2022-07-23T03:09:47;99799.91;;;18.25;100.00
12594;BME280;6362;50.208;9.182;2022-07-23T03:12:13;99796.47;;;18.24;100.00
12594;BME280;6362;50.208;9.182;2022-07-23T03:14:38;99793.00;;;18.25;100.00
12594;BME280;6362;50.208;9.182;2022-07-23T03:17:04;99796.41;;;18.26;100.00
12594;BME280;6362;50.208;9.182;2022-07-23T03:19:29;99798.34;;;18.18;100.00
12594;BME280;6362;50.208;9.182;2022-07-23T03:21:55;99795.06;;;18.09;100.00
12594;BME280;6362;50.208;9.182;2022-07-23T03:24:20;99796.78;;;18.10;100.00
12594;BME280;6362;50.208;9.182;2022-07-23T03:26:45;99798.38;;;18.16;100.00
12594;BME280;6362;50.208;9.182;2022-07-23T03:29:11;99794.91;;;18.17;100.00
12594;BME280;6362;50.208;9.182;2022-07-23T03:31:37;99792.25;;;18.20;100.00
12594;BME280;6362;50.208;9.182;2022-07-23T03:34:02;99799.09;;;18.23;100.00
12594;BME280;6362;50.208;9.182;2022-07-23T03:36:28;99819.66;;;18.26;100.00
12594;BME280;6362;50.208;9.182;2022-07-23T03:38:53;99822.22;;;18.27;100.00
12594;BME280;6362;50.208;9.182;2022-07-23T03:41:20;99816.41;;;18.18;100.00
12594;BME280;6362;50.208;9.182;2022-07-23T03:43:46;99813.97;;;18.10;100.00
12594;BME280;6362;50.208;9.182;2022-07-23T03:46:11;99815.91;;;18.02;100.00
12594;BME280;6362;50.208;9.182;2022-07-23T03:48:37;99820.97;;;18.06;100.00
12594;BME280;6362;50.208;9.182;2022-07-23T03:51:03;99819.31;;;18.02;100.00
12594;BME280;6362;50.208;9.182;2022-07-23T03:53:28;99816.91;;;17.95;100.00
12594;BME280;6362;50.208;9.182;2022-07-23T03:55:54;99821.19;;;17.96;100.00
12594;BME280;6362;50.208;9.182;2022-07-23T03:58:19;99811.59;;;18.01;100.00
12594;BME280;6362;50.208;9.182;2022-07-23T04:00:45;99810.66;;;18.05;100.00
12594;BME280;6362;50.208;9.182;2022-07-23T04:03:10;99826.03;;;18.11;100.00
12594;BME280;6362;50.208;9.182;2022-07-23T04:05:35;99817.44;;;18.10;100.00
12594;BME280;6362;50.208;9.182;2022-07-23T04:08:01;99826.03;;;18.11;100.00
12594;BME280;6362;50.208;9.182;2022-07-23T04:10:26;99813.09;;;18.13;100.00
12594;BME280;6362;50.208;9.182;2022-07-23T04:12:52;99817.44;;;18.10;100.00
12594;BME280;6362;50.208;9.182;2022-07-23T04:15:17;99826.88;;;18.10;100.00
12594;BME280;6362;50.208;9.182;2022-07-23T04:17:43;99821.06;;;18.02;100.00
12594;BME280;6362;50.208;9.182;2022-07-23T04:20:10;99833.03;;;18.06;100.00
12594;BME280;6362;50.208;9.182;2022-07-23T04:22:35;99832.16;;;18.05;100.00
12594;BME280;6362;50.208;9.182;2022-07-23T04:25:01;99832.75;;;18.18;100.00
12594;BME280;6362;50.208;9.182;2022-07-23T04:27:26;99836.97;;;18.22;100.00
12594;BME280;6362;50.208;9.182;2022-07-23T04:29:52;99827.41;;;18.26;100.00
12594;BME280;6362;50.208;9.182;2022-07-23T04:32:17;99835.16;;;18.26;100.00
12594;BME280;6362;50.208;9.182;2022-07-23T04:34:43;99842.13;;;18.24;100.00
12594;BME280;6362;50.208;9.182;2022-07-23T04:37:08;99847.19;;;18.28;100.00
12594;BME280;6362;50.208;9.182;2022-07-23T04:39:33;99847.94;;;18.32;100.00
12594;BME280;6362;50.208;9.182;2022-07-23T04:41:59;99844.28;;;18.42;100.00
12594;BME280;6362;50.208;9.182;2022-07-23T04:44:24;99845.00;;;18.49;100.00
12594;BME280;6362;50.208;9.182;2022-07-23T04:46:50;99849.16;;;18.55;100.00
12594;BME280;6362;50.208;9.182;2022-07-23T04:49:15;99851.69;;;18.58;100.00
12594;BME280;6362;50.208;9.182;2022-07-23T04:51:40;99854.19;;;18.62;100.00
12594;BME280;6362;50.208;9.182;2022-07-23T04:54:06;99861.13;;;18.59;100.00
12594;BME280;6362;50.208;9.182;2022-07-23T04:56:31;99857.72;;;18.57;100.00
12594;BME280;6362;50.208;9.182;2022-07-23T04:58:57;99866.19;;;18.63;100.00
12594;BME280;6362;50.208;9.182;2022-07-23T05:01:22;99858.47;;;18.62;100.00
12594;BME280;6362;50.208;9.182;2022-07-23T05:03:47;99864.41;;;18.67;100.00
12594;BME280;6362;50.208;9.182;2022-07-23T05:06:14;99872.09;;;18.68;100.00
12594;BME280;6362;50.208;9.182;2022-07-23T05:08:39;99870.38;;;18.69;100.00
12594;BME280;6362;50.208;9.182;2022-07-23T05:11:05;99877.22;;;18.71;100.00
12594;BME280;6362;50.208;9.182;2022-07-23T05:13:30;99873.66;;;18.77;100.00
12594;BME280;6362;50.208;9.182;2022-07-23T05:15:56;99871.81;;;18.82;100.00
12594;BME280;6362;50.208;9.182;2022-07-23T05:18:21;99887.38;;;18.79;100.00
12594;BME280;6362;50.208;9.182;2022-07-23T05:20:47;99892.41;;;18.87;100.00
12594;BME280;6362;50.208;9.182;2022-07-23T05:23:12;99901.66;;;18.96;100.00
12594;BME280;6362;50.208;9.182;2022-07-23T05:25:37;99903.88;;;19.11;100.00
12594;BME280;6362;50.208;9.182;2022-07-23T05:28:03;99905.94;;;19.32;100.00
12594;BME280;6362;50.208;9.182;2022-07-23T05:30:28;99897.72;;;19.51;100.00
12594;BME280;6362;50.208;9.182;2022-07-23T05:32:54;99901.72;;;19.63;100.00
12594;BME280;6362;50.208;9.182;2022-07-23T05:35:19;99898.53;;;19.53;100.00
12594;BME280;6362;50.208;9.182;2022-07-23T05:37:45;99897.13;;;19.41;100.00
12594;BME280;6362;50.208;9.182;2022-07-23T05:40:11;99903.38;;;19.31;100.00
12594;BME280;6362;50.208;9.182;2022-07-23T05:42:38;99896.91;;;19.14;100.00
12594;BME280;6362;50.208;9.182;2022-07-23T05:45:04;99893.50;;;19.12;100.00
12594;BME280;6362;50.208;9.182;2022-07-23T05:47:56;99903.94;;;19.09;100.00
12594;BME280;6362;50.208;9.182;2022-07-23T05:50:22;99910.81;;;19.09;100.00
12594;BME280;6362;50.208;9.182;2022-07-23T05:52:47;99907.53;;;19.02;100.00
12594;BME280;6362;50.208;9.182;2022-07-23T05:55:13;99899.84;;;18.99;100.00
12594;BME280;6362;50.208;9.182;2022-07-23T05:57:39;99906.00;;;18.93;100.00
12594;BME280;6362;50.208;9.182;2022-07-23T06:00:07;99908.69;;;18.89;100.00
12594;BME280;6362;50.208;9.182;2022-07-23T06:02:32;99914.06;;;18.81;100.00
12594;BME280;6362;50.208;9.182;2022-07-23T06:04:58;99907.00;;;18.88;100.00
12594;BME280;6362;50.208;9.182;2022-07-23T06:07:24;99916.44;;;18.89;100.00
12594;BME280;6362;50.208;9.182;2022-07-23T06:09:49;99928.41;;;18.95;100.00
12594;BME280;6362;50.208;9.182;2022-07-23T06:12:15;99941.22;;;18.99;100.00
12594;BME280;6362;50.208;9.182;2022-07-23T06:14:41;99949.69;;;19.04;100.00
12594;BME280;6362;50.208;9.182;2022-07-23T06:17:07;99950.50;;;19.08;100.00
12594;BME280;6362;50.208;9.182;2022-07-23T06:19:33;99945.13;;;19.16;100.00
12594;BME280;6362;50.208;9.182;2022-07-23T06:21:58;99943.78;;;19.37;100.00
12594;BME280;6362;50.208;9.182;2022-07-23T06:24:25;99933.28;;;19.43;100.00
12594;BME280;6362;50.208;9.182;2022-07-23T06:26:50;99926.16;;;19.52;100.00
12594;BME280;6362;50.208;9.182;2022-07-23T06:29:15;99928.31;;;19.68;100.00
12594;BME280;6362;50.208;9.182;2022-07-23T06:31:41;99932.94;;;19.91;100.00
12594;BME280;6362;50.208;9.182;2022-07-23T06:34:06;99940.66;;;20.24;100.00
12594;BME280;6362;50.208;9.182;2022-07-23T06:36:32;99944.38;;;20.45;100.00
12594;BME280;6362;50.208;9.182;2022-07-23T06:38:57;99950.25;;;20.51;100.00
12594;BME280;6362;50.208;9.182;2022-07-23T06:41:23;99948.41;;;20.55;100.00
12594;BME280;6362;50.208;9.182;2022-07-23T06:43:49;99953.19;;;20.69;100.00
12594;BME280;6362;50.208;9.182;2022-07-23T06:46:14;99951.88;;;20.85;100.00
12594;BME280;6362;50.208;9.182;2022-07-23T06:48:39;99956.16;;;20.85;100.00
12594;BME280;6362;50.208;9.182;2022-07-23T06:51:05;99949.53;;;21.04;100.00
12594;BME280;6362;50.208;9.182;2022-07-23T06:53:30;99951.47;;;20.97;100.00
12594;BME280;6362;50.208;9.182;2022-07-23T06:55:56;99964.84;;;21.12;100.00
12594;BME280;6362;50.208;9.182;2022-07-23T06:58:21;99965.34;;;21.23;100.00
12594;BME280;6362;50.208;9.182;2022-07-23T07:00:47;99968.25;;;21.14;100.00
12594;BME280;6362;50.208;9.182;2022-07-23T07:03:12;99971.66;;;20.88;100.00
12594;BME280;6362;50.208;9.182;2022-07-23T07:05:38;99971.03;;;20.79;100.00
12594;BME280;6362;50.208;9.182;2022-07-23T07:08:05;99964.47;;;20.68;100.00
12594;BME280;6362;50.208;9.182;2022-07-23T07:10:30;99963.03;;;20.57;100.00
12594;BME280;6362;50.208;9.182;2022-07-23T07:12:56;99966.53;;;20.55;100.00
12594;BME280;6362;50.208;9.182;2022-07-23T07:15:21;99974.34;;;20.53;100.00
12594;BME280;6362;50.208;9.182;2022-07-23T07:17:47;99965.78;;;20.51;100.00
12594;BME280;6362;50.208;9.182;2022-07-23T07:20:13;99962.03;;;20.63;100.00
12594;BME280;6362;50.208;9.182;2022-07-23T07:22:38;99961.91;;;20.66;100.00
12594;BME280;6362;50.208;9.182;2022-07-23T07:25:05;99972.78;;;20.79;100.00
12594;BME280;6362;50.208;9.182;2022-07-23T07:27:30;99975.22;;;20.84;100.00
12594;BME280;6362;50.208;9.182;2022-07-23T07:29:56;99972.72;;;21.09;100.00
12594;BME280;6362;50.208;9.182;2022-07-23T07:32:21;99983.25;;;21.59;100.00
12594;BME280;6362;50.208;9.182;2022-07-23T07:34:46;99987.53;;;21.87;100.00
12594;BME280;6362;50.208;9.182;2022-07-23T07:37:12;99990.28;;;22.07;100.00
12594;BME280;6362;50.208;9.182;2022-07-23T07:39:37;99996.59;;;22.00;100.00
12594;BME280;6362;50.208;9.182;2022-07-23T07:42:03;99994.31;;;22.16;100.00
12594;BME280;6362;50.208;9.182;2022-07-23T07:44:28;99999.25;;;22.47;100.00
12594;BME280;6362;50.208;9.182;2022-07-23T07:46:54;100005.03;;;22.79;100.00
12594;BME280;6362;50.208;9.182;2022-07-23T07:49:19;100009.81;;;22.90;100.00
12594;BME280;6362;50.208;9.182;2022-07-23T07:51:45;100012.06;;;23.22;100.00
12594;BME280;6362;50.208;9.182;2022-07-23T07:54:11;100017.19;;;23.46;100.00
12594;BME280;6362;50.208;9.182;2022-07-23T07:56:36;100017.97;;;23.48;100.00
12594;BME280;6362;50.208;9.182;2022-07-23T07:59:02;100009.59;;;23.62;100.00
12594;BME280;6362;50.208;9.182;2022-07-23T08:01:27;100015.31;;;23.92;100.00
12594;BME280;6362;50.208;9.182;2022-07-23T08:03:53;100010.16;;;24.11;100.00
12594;BME280;6362;50.208;9.182;2022-07-23T08:06:18;100008.50;;;24.29;100.00
12594;BME280;6362;50.208;9.182;2022-07-23T08:08:44;100010.78;;;24.37;99.79
12594;BME280;6362;50.208;9.182;2022-07-23T08:11:09;100012.81;;;24.30;100.00
12594;BME280;6362;50.208;9.182;2022-07-23T08:13:35;100010.41;;;24.25;100.00
12594;BME280;6362;50.208;9.182;2022-07-23T08:16:00;100010.13;;;24.31;99.11
12594;BME280;6362;50.208;9.182;2022-07-23T08:18:26;100009.91;;;24.36;97.79
12594;BME280;6362;50.208;9.182;2022-07-23T08:20:51;100007.66;;;24.28;99.35
12594;BME280;6362;50.208;9.182;2022-07-23T08:23:17;100008.88;;;24.40;99.79
12594;BME280;6362;50.208;9.182;2022-07-23T08:25:44;100010.06;;;24.54;97.21
12594;BME280;6362;50.208;9.182;2022-07-23T08:28:11;100008.16;;;24.95;97.31
12594;BME280;6362;50.208;9.182;2022-07-23T08:30:38;100009.63;;;25.01;97.47
12594;BME280;6362;50.208;9.182;2022-07-23T08:33:15;100006.19;;;25.00;91.87
12594;BME280;6362;50.208;9.182;2022-07-23T08:35:49;100016.47;;;25.03;90.55
12594;BME280;6362;50.208;9.182;2022-07-23T08:38:17;100021.22;;;24.95;91.56
12594;BME280;6362;50.208;9.182;2022-07-23T08:40:48;100020.44;;;24.93;93.17
12594;BME280;6362;50.208;9.182;2022-07-23T08:43:19;100034.66;;;25.24;92.39
12594;BME280;6362;50.208;9.182;2022-07-23T08:45:50;100045.53;;;25.33;94.60
12594;BME280;6362;50.208;9.182;2022-07-23T08:48:20;100035.91;;;25.15;91.45
12594;BME280;6362;50.208;9.182;2022-07-23T08:50:49;100035.16;;;25.13;89.60
12594;BME280;6362;50.208;9.182;2022-07-23T08:53:15;100040.72;;;25.05;88.85
12594;BME280;6362;50.208;9.182;2022-07-23T08:55:44;100029.81;;;24.97;89.25
12594;BME280;6362;50.208;9.182;2022-07-23T08:58:10;100032.91;;;24.86;91.59
12594;BME280;6362;50.208;9.182;2022-07-23T09:00:35;100029.38;;;24.87;89.00
12594;BME280;6362;50.208;9.182;2022-07-23T09:03:01;100033.09;;;25.01;91.67
12594;BME280;6362;50.208;9.182;2022-07-23T09:05:27;100034.66;;;25.05;89.40
12594;BME280;6362;50.208;9.182;2022-07-23T09:10:59;100034.09;;;24.98;86.90
12594;BME280;6362;50.208;9.182;2022-07-23T09:15:55;100038.25;;;25.40;89.16
12594;BME280;6362;50.208;9.182;2022-07-23T09:18:41;100034.09;;;25.71;90.67
12594;BME280;6362;50.208;9.182;2022-07-23T09:21:23;100043.91;;;26.02;86.88
12594;BME280;6362;50.208;9.182;2022-07-23T09:26:24;100033.41;;;26.86;86.24
12594;BME280;6362;50.208;9.182;2022-07-23T09:31:55;100029.94;;;27.33;77.10
12594;BME280;6362;50.208;9.182;2022-07-23T09:34:31;100034.09;;;27.22;74.67
12594;BME280;6362;50.208;9.182;2022-07-23T09:37:10;100036.78;;;27.04;73.40
12594;BME280;6362;50.208;9.182;2022-07-23T09:39:37;100035.19;;;27.17;71.46
12594;BME280;6362;50.208;9.182;2022-07-23T09:44:47;100037.31;;;27.43;78.58
12594;BME280;6362;50.208;9.182;2022-07-23T09:47:13;100031.56;;;27.66;73.00
12594;BME280;6362;50.208;9.182;2022-07-23T09:49:39;100034.97;;;27.82;76.45
12594;BME280;6362;50.208;9.182;2022-07-23T09:52:05;100040.66;;;27.91;67.34
12594;BME280;6362;50.208;9.182;2022-07-23T09:54:35;100035.19;;;27.79;71.54
12594;BME280;6362;50.208;9.182;2022-07-23T09:57:11;100036.19;;;27.77;66.62
12594;BME280;6362;50.208;9.182;2022-07-23T09:59:42;100027.25;;;27.19;68.40
12594;BME280;6362;50.208;9.182;2022-07-23T10:02:10;100027.09;;;27.22;71.00
12594;BME280;6362;50.208;9.182;2022-07-23T10:04:37;100036.25;;;27.61;71.66
12594;BME280;6362;50.208;9.182;2022-07-23T10:07:06;100021.28;;;27.63;67.40
12594;BME280;6362;50.208;9.182;2022-07-23T10:09:35;100031.69;;;27.95;69.46
12594;BME280;6362;50.208;9.182;2022-07-23T10:12:10;100022.03;;;28.10;67.11
12594;BME280;6362;50.208;9.182;2022-07-23T10:14:51;100022.34;;;28.34;68.23
12594;BME280;6362;50.208;9.182;2022-07-23T10:17:17;100028.22;;;28.95;65.30
12594;BME280;6362;50.208;9.182;2022-07-23T10:19:44;100018.84;;;28.91;59.06
12594;BME280;6362;50.208;9.182;2022-07-23T10:22:11;100027.56;;;29.33;56.07
12594;BME280;6362;50.208;9.182;2022-07-23T10:30:51;100023.84;;;29.62;55.79
12594;BME280;6362;50.208;9.182;2022-07-23T10:33:32;100017.50;;;30.05;54.47
12594;BME280;6362;50.208;9.182;2022-07-23T10:36:27;100008.03;;;30.54;49.40
12594;BME280;6362;50.208;9.182;2022-07-23T10:39:11;100011.31;;;30.44;46.95
12594;BME280;6362;50.208;9.182;2022-07-23T10:41:40;100009.22;;;30.86;48.43
12594;BME280;6362;50.208;9.182;2022-07-23T10:44:17;100015.78;;;30.68;41.47
12594;BME280;6362;50.208;9.182;2022-07-23T10:46:58;100003.97;;;30.86;44.19
12594;BME280;6362;50.208;9.182;2022-07-23T10:49:31;100002.13;;;31.00;44.26
12594;BME280;6362;50.208;9.182;2022-07-23T10:52:19;100010.41;;;31.06;40.50
12594;BME280;6362;50.208;9.182;2022-07-23T10:54:53;100003.94;;;30.49;37.68
12594;BME280;6362;50.208;9.182;2022-07-23T10:57:26;100010.84;;;31.00;37.74
12594;BME280;6362;50.208;9.182;2022-07-23T11:02:35;100010.34;;;31.43;40.62
12594;BME280;6362;50.208;9.182;2022-07-23T11:05:09;100015.50;;;31.80;41.57
12594;BME280;6362;50.208;9.182;2022-07-23T11:07:36;100012.97;;;31.67;39.04
12594;BME280;6362;50.208;9.182;2022-07-23T11:10:03;100009.72;;;31.40;41.61
12594;BME280;6362;50.208;9.182;2022-07-23T11:22:56;100011.84;;;32.84;36.79
12594;BME280;6362;50.208;9.182;2022-07-23T11:27:48;100003.81;;;32.86;35.39
12594;BME280;6362;50.208;9.182;2022-07-23T11:32:52;100010.53;;;33.54;34.62
12594;BME280;6362;50.208;9.182;2022-07-23T11:35:26;100010.00;;;33.39;37.01
12594;BME280;6362;50.208;9.182;2022-07-23T11:37:54;100010.53;;;33.96;35.06
12594;BME280;6362;50.208;9.182;2022-07-23T11:40:27;100004.25;;;33.67;34.11
12594;BME280;6362;50.208;9.182;2022-07-23T11:43:08;100008.06;;;34.05;34.82
12594;BME280;6362;50.208;9.182;2022-07-23T11:47:59;99994.72;;;34.27;32.43
12594;BME280;6362;50.208;9.182;2022-07-23T11:50:25;99991.84;;;34.50;30.80
12594;BME280;6362;50.208;9.182;2022-07-23T11:52:52;99992.81;;;34.49;33.88
12594;BME280;6362;50.208;9.182;2022-07-23T11:55:18;99986.19;;;34.74;33.02
12594;BME280;6362;50.208;9.182;2022-07-23T11:57:44;99982.91;;;34.41;32.14
12594;BME280;6362;50.208;9.182;2022-07-23T12:00:16;99991.69;;;34.41;32.63
12594;BME280;6362;50.208;9.182;2022-07-23T12:02:44;100003.31;;;33.98;33.34
12594;BME280;6362;50.208;9.182;2022-07-23T12:05:14;100000.78;;;34.18;34.73
12594;BME280;6362;50.208;9.182;2022-07-23T12:07:41;99994.53;;;33.56;31.66
12594;BME280;6362;50.208;9.182;2022-07-23T12:10:14;100000.88;;;33.32;33.60
12594;BME280;6362;50.208;9.182;2022-07-23T12:15:11;99993.94;;;33.31;31.55
12594;BME280;6362;50.208;9.182;2022-07-23T12:17:39;99993.56;;;33.36;34.37
12594;BME280;6362;50.208;9.182;2022-07-23T12:20:12;99998.66;;;33.91;33.14
12594;BME280;6362;50.208;9.182;2022-07-23T12:22:45;99997.75;;;34.63;32.17
12594;BME280;6362;50.208;9.182;2022-07-23T12:25:14;99993.53;;;34.60;30.70
12594;BME280;6362;50.208;9.182;2022-07-23T12:27:41;99983.16;;;34.38;29.88
12594;BME280;6362;50.208;9.182;2022-07-23T12:32:46;99987.53;;;34.18;31.19
12594;BME280;6362;50.208;9.182;2022-07-23T12:35:13;99983.31;;;34.46;30.70
12594;BME280;6362;50.208;9.182;2022-07-23T12:37:41;99982.00;;;34.21;32.05
12594;BME280;6362;50.208;9.182;2022-07-23T12:40:37;99983.44;;;34.35;30.19
12594;BME280;6362;50.208;9.182;2022-07-23T12:43:05;99979.25;;;34.32;29.76
12594;BME280;6362;50.208;9.182;2022-07-23T12:46:01;99972.81;;;34.66;30.95
12594;BME280;6362;50.208;9.182;2022-07-23T12:49:10;99982.69;;;34.02;29.47
12594;BME280;6362;50.208;9.182;2022-07-23T12:51:19;99977.94;;;34.17;31.15
12594;BME280;6362;50.208;9.182;2022-07-23T12:53:47;99972.72;;;34.46;31.53
12594;BME280;6362;50.208;9.182;2022-07-23T12:56:15;99970.22;;;34.95;29.86
12594;BME280;6362;50.208;9.182;2022-07-23T12:58:57;99975.22;;;35.37;31.35
12594;BME280;6362;50.208;9.182;2022-07-23T13:01:27;99975.94;;;35.19;27.53
12594;BME280;6362;50.208;9.182;2022-07-23T13:06:29;99974.41;;;35.36;29.10
12594;BME280;6362;50.208;9.182;2022-07-23T13:08:55;99979.16;;;35.42;29.21
12594;BME280;6362;50.208;9.182;2022-07-23T13:11:21;99982.34;;;35.46;27.44
12594;BME280;6362;50.208;9.182;2022-07-23T13:13:47;99982.16;;;35.57;28.93
12594;BME280;6362;50.208;9.182;2022-07-23T13:16:12;99984.56;;;35.41;28.77
12594;BME280;6362;50.208;9.182;2022-07-23T13:18:38;99985.31;;;35.33;27.21
12594;BME280;6362;50.208;9.182;2022-07-23T13:21:03;99984.03;;;35.28;28.91
12594;BME280;6362;50.208;9.182;2022-07-23T13:23:29;99989.47;;;35.26;27.44
12594;BME280;6362;50.208;9.182;2022-07-23T13:25:54;99980.38;;;35.48;27.80
12594;BME280;6362;50.208;9.182;2022-07-23T13:28:21;99979.53;;;35.57;27.61
12594;BME280;6362;50.208;9.182;2022-07-23T13:30:49;99989.75;;;35.23;27.94
12594;BME280;6362;50.208;9.182;2022-07-23T13:33:19;99987.09;;;35.23;27.45
12594;BME280;6362;50.208;9.182;2022-07-23T13:35:45;99980.09;;;35.02;27.00
12594;BME280;6362;50.208;9.182;2022-07-23T13:38:11;99981.19;;;34.90;28.51
12594;BME280;6362;50.208;9.182;2022-07-23T13:40:40;99977.44;;;34.33;30.00
12594;BME280;6362;50.208;9.182;2022-07-23T13:43:11;99989.38;;;33.54;31.61
12594;BME280;6362;50.208;9.182;2022-07-23T13:45:38;99983.38;;;33.31;31.76
12594;BME280;6362;50.208;9.182;2022-07-23T13:48:05;99975.13;;;33.88;31.48
12594;BME280;6362;50.208;9.182;2022-07-23T13:50:32;99973.34;;;34.19;31.60
12594;BME280;6362;50.208;9.182;2022-07-23T13:53:02;99970.34;;;34.83;29.91